Time;durP1;ratioP1;P1;durP2;ratioP2;P2;SDS_P1;SDS_P2;PMS_P1;PMS_P2;Temp;Humidity;BMP_temperature;BMP_pressure;BME280_temperature;BME280_humidity;BME280_pressure;Samples;Min_cycle;Max_cycle;Signal;HPM_P1;HPM_P2
2022/10/15 00:00:53;;;;;;;13.97;10.27;;;;;;;5.88;77.88;101178.16;1673710;82;21009;-69
2022/10/15 00:03:21;;;;;;;14.43;11.30;;;;;;;5.88;77.98;101174.65;1663117;85;21079;-70
2022/10/15 00:05:47;;;;;;;18.25;11.88;;;;;;;5.89;78.21;101178.48;1659214;85;21104;-70
2022/10/15 00:08:14;;;;;;;17.32;11.28;;;;;;;5.94;78.47;101175.45;1656225;84;21082;-71
2022/10/15 00:10:40;;;;;;;;;;;;;;;5.97;78.53;101183.98;1630617;85;21132;-71
2022/10/15 00:13:07;;;;;;;15.53;10.47;;;;;;;5.98;78.79;101182.98;1667955;84;20129;-71
2022/10/15 00:15:36;;;;;;;21.00;11.80;;;;;;;5.92;79.43;101178.22;1669998;84;21049;-72
2022/10/15 00:18:03;;;;;;;17.10;11.43;;;;;;;5.90;79.57;101177.53;1664326;85;21052;-72
2022/10/15 00:20:31;;;;;;;15.43;10.60;;;;;;;5.90;80.44;101178.84;1662258;84;21126;-71
2022/10/15 00:22:57;;;;;;;16.05;10.78;;;;;;;5.89;80.57;101173.69;1664745;85;21065;-71
2022/10/15 00:25:23;;;;;;;14.18;11.08;;;;;;;5.88;80.56;101174.19;1666985;85;21660;-71
2022/10/15 00:27:49;;;;;;;14.93;10.82;;;;;;;5.90;80.53;101168.77;1664427;86;21022;-72
2022/10/15 00:30:17;;;;;;;18.73;11.57;;;;;;;5.93;80.45;101164.50;1672982;84;21105;-71
2022/10/15 00:32:43;;;;;;;15.50;11.75;;;;;;;5.94;80.49;101164.36;1662428;85;21502;-71
2022/10/15 00:35:09;;;;;;;14.95;10.98;;;;;;;5.96;80.60;101166.41;1710144;82;21345;-71
2022/10/15 00:37:36;;;;;;;15.03;11.13;;;;;;;5.96;80.71;101163.77;1715422;82;20992;-71
2022/10/15 00:40:02;;;;;;;14.30;11.03;;;;;;;5.96;80.88;101167.73;1716939;82;20991;-71
2022/10/15 00:42:30;;;;;;;14.53;11.03;;;;;;;5.96;81.07;101166.41;1702066;82;21027;-71
2022/10/15 00:44:59;;;;;;;17.07;12.45;;;;;;;5.97;81.09;101162.80;1702320;82;21091;-71
2022/10/15 00:47:31;;;;;;;17.03;11.10;;;;;;;5.98;80.77;101164.96;1711477;82;21788;-69
2022/10/15 00:50:03;;;;;;;15.73;12.23;;;;;;;6.00;80.63;101167.80;1706854;82;20990;-70
2022/10/15 00:52:59;;;;;;;14.97;10.63;;;;;;;6.03;80.54;101160.09;1692265;82;21098;-71
2022/10/15 00:55:38;;;;;;;15.60;11.37;;;;;;;6.07;80.79;101164.13;1706568;82;20981;-72
2022/10/15 00:58:14;;;;;;;13.10;11.13;;;;;;;6.11;80.78;101167.34;1705129;83;21048;-71
2022/10/15 01:00:41;;;;;;;19.63;11.33;;;;;;;6.14;81.02;101166.58;1708751;82;21543;-71
2022/10/15 01:03:09;;;;;;;14.70;11.17;;;;;;;6.15;81.04;101164.76;1675504;84;21591;-70
2022/10/15 01:05:37;;;;;;;15.98;11.30;;;;;;;6.17;81.19;101161.48;1725266;81;21546;-71
2022/10/15 01:08:04;;;;;;;16.20;11.33;;;;;;;6.14;81.46;101162.61;1710050;82;21504;-71
2022/10/15 01:10:39;;;;;;;16.70;10.82;;;;;;;6.14;81.16;101167.05;1720531;82;21034;-71
2022/10/15 01:13:34;;;;;;;17.50;11.70;;;;;;;6.15;80.99;101160.78;1711157;82;21014;-72
2022/10/15 01:16:23;;;;;;;17.10;11.43;;;;;;;6.16;80.82;101165.95;1718589;82;20947;-70
2022/10/15 01:19:13;;;;;;;16.93;11.63;;;;;;;6.17;80.57;101161.48;1710517;82;20973;-70
2022/10/15 01:21:55;;;;;;;13.83;10.53;;;;;;;6.18;80.71;101157.88;1707375;82;21596;-70
2022/10/15 01:24:52;;;;;;;18.47;11.97;;;;;;;6.19;81.10;101160.36;1723242;82;21605;-70
2022/10/15 01:27:32;;;;;;;14.53;11.67;;;;;;;6.21;81.31;101162.37;1715440;82;21032;-71
2022/10/15 01:30:23;;;;;;;15.63;10.90;;;;;;;6.22;81.36;101159.27;1690075;82;21103;-70
2022/10/15 01:33:08;;;;;;;17.17;11.50;;;;;;;6.18;81.68;101154.73;1716544;82;20996;-72
2022/10/15 01:35:50;;;;;;;14.13;11.00;;;;;;;6.13;81.74;101159.59;1716565;82;21053;-70
2022/10/15 01:38:36;;;;;;;17.53;11.53;;;;;;;6.10;81.77;101157.72;1691349;82;21063;-70
2022/10/15 01:41:27;;;;;;;13.57;10.07;;;;;;;6.10;81.62;101160.36;1709754;82;21018;-70
2022/10/15 01:43:59;;;;;;;14.33;10.87;;;;;;;6.12;81.59;101165.02;1700237;82;21092;-71
2022/10/15 01:46:51;;;;;;;24.47;11.87;;;;;;;6.14;81.87;101157.31;1704511;82;21019;-70
2022/10/15 01:49:24;;;;;;;21.27;11.00;;;;;;;6.18;81.74;101167.14;1694186;82;21590;-70
2022/10/15 01:51:52;;;;;;;12.77;10.10;;;;;;;6.21;81.73;101166.34;1688441;83;21047;-69
2022/10/15 01:54:22;;;;;;;13.73;11.27;;;;;;;6.21;81.89;101165.02;1713942;82;21450;-70
2022/10/15 01:56:50;;;;;;;15.97;12.03;;;;;;;6.19;82.28;101170.12;1714471;83;20978;-70
2022/10/15 01:59:29;;;;;;;14.57;10.63;;;;;;;6.16;82.04;101170.39;1712409;82;21054;-70
2022/10/15 02:01:55;;;;;;;14.03;10.57;;;;;;;6.15;82.06;101169.55;1691648;82;21078;-71
2022/10/15 02:04:29;;;;;;;15.50;11.03;;;;;;;6.17;82.03;101170.25;1686791;82;21142;-70
2022/10/15 02:07:16;;;;;;;14.27;10.37;;;;;;;6.19;81.86;101181.53;1731727;81;21028;-71
2022/10/15 02:09:57;;;;;;;16.10;9.53;;;;;;;6.24;81.78;101183.78;1725105;81;20954;-71
2022/10/15 02:13:02;;;;;;;14.73;11.03;;;;;;;6.30;81.55;101177.92;1723789;81;21058;-71
2022/10/15 02:15:53;;;;;;;12.80;10.03;;;;;;;6.36;81.38;101189.27;1706217;82;21052;-70
2022/10/15 02:18:41;;;;;;;13.77;9.93;;;;;;;6.38;80.58;101180.70;1701705;82;21467;-70
2022/10/15 02:21:13;;;;;;;16.80;10.68;;;;;;;6.35;80.55;101183.64;1729177;82;21131;-70
2022/10/15 02:23:47;;;;;;;19.50;11.33;;;;;;;6.31;80.61;101185.37;1721333;82;21070;-71
2022/10/15 02:26:16;;;;;;;13.30;10.87;;;;;;;6.28;80.65;101187.81;1700582;82;21502;-70
2022/10/15 02:28:49;;;;;;;15.50;10.87;;;;;;;6.29;80.78;101186.86;1713011;82;20984;-71
2022/10/15 02:31:18;;;;;;;17.07;9.83;;;;;;;6.33;80.80;101190.89;1714424;82;21060;-71
2022/10/15 02:33:47;;;;;;;14.03;9.30;;;;;;;6.38;80.80;101190.45;1713140;81;21066;-71
2022/10/15 02:36:14;;;;;;;14.07;8.40;;;;;;;6.43;80.72;101191.70;1715010;82;21045;-70
2022/10/15 02:38:43;;;;;;;10.40;7.87;;;;;;;6.50;80.54;101189.81;1709918;82;21511;-70
2022/10/15 02:41:10;;;;;;;10.07;7.60;;;;;;;6.55;80.07;101191.56;1689999;82;21043;-70
2022/10/15 02:43:39;;;;;;;9.80;7.93;;;;;;;6.59;79.59;101194.27;1711648;82;21087;-71
2022/10/15 02:46:08;;;;;;;11.40;8.03;;;;;;;6.60;79.26;101194.63;1716497;82;20984;-72
2022/10/15 02:48:36;;;;;;;10.87;8.33;;;;;;;6.59;79.16;101194.27;1715198;82;21112;-71
2022/10/15 02:51:03;;;;;;;11.90;9.45;;;;;;;6.55;79.33;101191.06;1719551;82;21013;-70
2022/10/15 02:53:32;;;;;;;14.00;9.07;;;;;;;6.47;79.52;101198.06;1710049;82;21042;-70
2022/10/15 02:55:58;;;;;;;15.73;9.50;;;;;;;6.40;79.77;101198.63;1714072;82;21047;-71
2022/10/15 02:58:24;;;;;;;13.38;9.70;;;;;;;6.35;80.01;101202.18;1716811;82;20965;-71
2022/10/15 03:00:51;;;;;;;11.10;8.47;;;;;;;6.33;80.15;101195.33;1718132;82;20946;-71
2022/10/15 03:03:17;;;;;;;13.45;8.93;;;;;;;6.31;80.26;101195.49;1682610;84;21041;-71
2022/10/15 03:05:44;;;;;;;15.17;9.03;;;;;;;6.34;80.50;101197.84;1714249;82;21074;-72
2022/10/15 03:08:11;;;;;;;9.53;8.10;;;;;;;6.39;80.48;101190.82;1714829;83;21053;-72
2022/10/15 03:10:38;;;;;;;11.20;7.97;;;;;;;6.43;80.24;101187.73;1716273;83;21551;-71
2022/10/15 03:13:05;;;;;;;10.80;8.63;;;;;;;6.49;79.93;101194.78;1671001;84;20998;-71
2022/10/15 03:15:35;;;;;;;9.87;8.60;;;;;;;6.51;79.66;101187.03;1705110;83;21467;-72
2022/10/15 03:18:02;;;;;;;12.43;7.43;;;;;;;6.55;79.32;101187.59;1704634;83;20996;-72
2022/10/15 03:20:30;;;;;;;11.37;8.23;;;;;;;6.55;79.10;101188.91;1703286;82;20986;-72
2022/10/15 03:22:57;;;;;;;10.07;8.47;;;;;;;6.55;79.08;101184.94;1713365;82;21110;-70
2022/10/15 03:25:23;;;;;;;10.72;8.70;;;;;;;6.49;79.20;101186.84;1715489;82;20966;-71
2022/10/15 03:27:53;;;;;;;12.77;8.90;;;;;;;6.42;79.30;101189.20;1705495;82;21594;-73
2022/10/15 03:30:22;;;;;;;13.27;8.73;;;;;;;6.37;79.56;101188.30;1712869;82;20986;-72
2022/10/15 03:32:49;;;;;;;10.13;8.53;;;;;;;6.35;79.66;101187.61;1706330;82;21034;-71
2022/10/15 03:35:16;;;;;;;;;;;;;;;6.38;79.75;101185.16;1696644;83;21531;-70
2022/10/15 03:37:43;;;;;;;12.45;9.25;;;;;;;6.42;79.67;101184.76;1710695;82;20236;-71
2022/10/15 03:40:10;;;;;;;12.50;8.83;;;;;;;6.41;79.57;101195.48;1717747;82;21013;-72
2022/10/15 03:42:37;;;;;;;17.33;9.40;;;;;;;6.46;79.54;101182.67;1718972;82;21061;-71
2022/10/15 03:45:05;;;;;;;12.20;8.33;;;;;;;6.49;79.15;101185.02;1677112;84;21545;-70
2022/10/15 03:47:33;;;;;;;15.23;8.03;;;;;;;6.51;79.07;101184.88;1716721;83;21584;-71
2022/10/15 03:49:59;;;;;;;8.35;6.62;;;;;;;6.53;78.83;101181.59;1663826;82;21544;-70
2022/10/15 03:52:26;;;;;;;;;;;;;;;6.51;78.59;101186.20;1704956;83;21041;-71
2022/10/15 03:54:52;;;;;;;13.43;8.93;;;;;;;6.49;78.57;101182.37;1665761;84;20123;-71
2022/10/15 03:57:19;;;;;;;10.70;8.33;;;;;;;6.40;78.85;101192.02;1698188;83;21546;-70
2022/10/15 03:59:49;;;;;;;11.83;9.43;;;;;;;6.37;79.05;101189.63;1676823;84;21129;-72
2022/10/15 04:02:15;;;;;;;18.03;9.03;;;;;;;6.36;79.13;101191.09;1701045;83;21597;-72
2022/10/15 04:04:41;;;;;;;12.82;8.68;;;;;;;6.36;79.32;101189.27;1669263;84;21050;-71
2022/10/15 04:07:08;;;;;;;;;;;;;;;6.37;79.33;101188.30;1669178;84;21023;-72
2022/10/15 04:09:37;;;;;;;11.20;8.47;;;;;;;6.35;79.25;101184.14;1682126;83;20419;-69
2022/10/15 04:12:06;;;;;;;15.63;8.50;;;;;;;6.32;79.20;101189.20;1688617;83;21160;-70
2022/10/15 04:14:33;;;;;;;15.87;9.83;;;;;;;6.36;79.12;101195.89;1692055;83;21105;-70
2022/10/15 04:17:00;;;;;;;10.70;8.27;;;;;;;6.42;79.20;101201.11;1691339;83;20991;-73
2022/10/15 04:19:27;;;;;;;13.90;7.37;;;;;;;6.49;78.95;101196.11;1684102;84;21030;-71
2022/10/15 04:21:57;;;;;;;8.77;7.13;;;;;;;6.54;78.51;101198.68;1646989;84;21118;-72
2022/10/15 04:24:25;;;;;;;12.37;8.20;;;;;;;6.59;78.19;101194.27;1666223;84;21029;-70
2022/10/15 04:26:52;;;;;;;13.98;8.08;;;;;;;6.63;77.88;101197.02;1641681;85;21043;-72
2022/10/15 04:29:18;;;;;;;11.37;8.03;;;;;;;6.66;77.40;101196.70;1686073;82;21000;-70
2022/10/15 04:31:45;;;;;;;;;;;;;;;6.69;77.22;101193.78;1707546;82;21137;-72
2022/10/15 04:34:11;;;;;;;13.37;6.97;;;;;;;6.74;77.08;101194.20;1708231;82;20171;-74
2022/10/15 04:36:38;;;;;;;13.73;7.37;;;;;;;6.74;77.11;101195.99;1686077;82;21034;-74
2022/10/15 04:39:15;;;;;;;12.27;7.67;;;;;;;6.79;76.67;101194.59;1659680;86;21059;-80
2022/10/15 04:41:42;;;;;;;13.43;7.63;;;;;;;6.80;76.12;101194.13;1654719;85;21126;-72
2022/10/15 04:44:14;;;;;;;10.73;7.30;;;;;;;6.82;76.16;101196.97;1652828;85;21106;-75
2022/10/15 04:46:42;;;;;;;9.47;6.80;;;;;;;6.86;76.15;101192.22;1680700;84;21035;-70
2022/10/15 04:49:17;;;;;;;12.97;7.47;;;;;;;6.89;75.58;101188.44;1737579;81;21010;-70
2022/10/15 04:51:43;;;;;;;13.00;8.38;;;;;;;6.91;75.27;101188.66;1733950;81;21054;-70
2022/10/15 04:54:12;;;;;;;8.83;7.60;;;;;;;6.91;74.86;101193.09;1737133;82;20939;-69
2022/10/15 04:56:40;;;;;;;14.73;9.13;;;;;;;6.92;75.04;101191.64;1733050;82;20967;-69
2022/10/15 04:59:08;;;;;;;9.40;7.65;;;;;;;7.11;75.37;101195.22;1740075;82;22027;-69
2022/10/15 05:01:36;;;;;;;9.57;7.10;;;;;;;7.52;75.51;101195.26;1728309;81;20989;-68
2022/10/15 05:04:04;;;;;;;9.97;8.07;;;;;;;8.12;74.30;101195.25;1737599;82;21515;-69
2022/10/15 05:06:33;;;;;;;11.13;7.17;;;;;;;8.76;71.03;101196.81;1737150;82;20982;-68
2022/10/15 05:09:03;;;;;;;15.37;8.50;;;;;;;9.44;68.67;101193.87;1737153;82;21478;-70
2022/10/15 05:11:36;;;;;;;9.70;7.13;;;;;;;10.13;65.59;101196.37;1737347;82;21038;-67
2022/10/15 05:14:05;;;;;;;11.83;8.23;;;;;;;10.83;63.87;101191.93;1738979;81;21070;-70
2022/10/15 05:16:33;;;;;;;11.00;7.80;;;;;;;11.61;59.78;101190.85;1734861;80;21042;-70
2022/10/15 05:19:05;;;;;;;12.98;9.53;;;;;;;12.22;58.88;101190.53;1734617;81;20999;-70
2022/10/15 05:21:34;;;;;;;10.45;8.30;;;;;;;12.82;56.20;101194.69;1739636;81;21507;-69
2022/10/15 05:24:04;;;;;;;9.53;8.23;;;;;;;13.42;54.69;101191.56;1734247;82;21571;-71
2022/10/15 05:26:38;;;;;;;9.93;6.92;;;;;;;14.04;52.39;101196.92;1730428;81;21038;-69
2022/10/15 05:29:04;;;;;;;9.20;7.00;;;;;;;14.55;48.99;101195.44;1739413;81;20984;-70
2022/10/15 05:31:33;;;;;;;16.57;7.50;;;;;;;14.88;47.55;101202.97;1739572;82;22245;-70
2022/10/15 05:34:08;;;;;;;12.03;6.83;;;;;;;15.03;47.07;101197.50;1735379;81;20983;-70
2022/10/15 05:36:36;;;;;;;10.08;5.97;;;;;;;15.32;45.18;101191.04;1691142;83;21019;-70
2022/10/15 05:39:06;;;;;;;8.05;5.30;;;;;;;15.62;44.29;101197.48;1738341;81;21051;-72
2022/10/15 05:41:34;;;;;;;9.73;5.45;;;;;;;15.86;44.24;101194.81;1692511;83;20969;-71
2022/10/15 05:44:00;;;;;;;11.38;4.78;;;;;;;16.06;43.04;101194.84;1733310;81;21106;-68
2022/10/15 05:46:29;;;;;;;4.55;4.15;;;;;;;16.06;42.23;101192.16;1738855;81;21024;-69
2022/10/15 05:48:57;;;;;;;8.93;4.55;;;;;;;16.05;41.58;101199.93;1733022;81;21009;-70
2022/10/15 05:51:26;;;;;;;5.67;4.92;;;;;;;16.09;41.91;101203.05;1730897;82;21105;-70
2022/10/15 05:53:56;;;;;;;11.28;4.62;;;;;;;16.05;41.29;101201.27;1727828;81;21491;-71
2022/10/15 05:56:26;;;;;;;7.17;5.87;;;;;;;15.92;41.65;101203.41;1736284;81;21071;-69
2022/10/15 05:58:52;;;;;;;8.03;4.47;;;;;;;15.94;41.79;101195.14;1731165;81;21460;-71
2022/10/15 06:01:22;;;;;;;6.42;4.40;;;;;;;15.88;40.83;101195.44;1739468;81;20990;-77
2022/10/15 06:03:50;;;;;;;7.08;3.95;;;;;;;15.38;40.98;101191.58;1740770;81;21047;-74
2022/10/15 06:06:23;;;;;;;5.40;3.98;;;;;;;14.53;42.20;101202.03;1739853;81;21558;-74
2022/10/15 06:08:52;;;;;;;4.28;2.60;;;;;;;13.70;44.05;101201.08;1738327;82;21574;-76
2022/10/15 06:11:21;;;;;;;6.28;2.70;;;;;;;12.82;45.28;101198.70;1741053;82;21057;-75
2022/10/15 06:13:47;;;;;;;3.27;2.90;;;;;;;12.24;46.43;101203.20;1733679;82;21105;-75
2022/10/15 06:16:16;;;;;;;4.95;3.87;;;;;;;11.81;47.49;101213.45;1731809;81;21573;-75
2022/10/15 06:18:42;;;;;;;3.55;2.92;;;;;;;11.47;48.77;101211.94;1735104;81;21022;-75
2022/10/15 06:21:10;;;;;;;;;;;;;;;11.17;49.50;101218.88;1743048;81;21045;-74
2022/10/15 06:23:37;;;;;;;4.75;2.98;;;;;;;10.94;50.22;101227.24;1727429;81;20128;-74
2022/10/15 06:26:08;;;;;;;3.22;2.92;;;;;;;10.70;50.76;101223.10;1738463;81;21143;-74
2022/10/15 06:28:37;;;;;;;8.08;2.98;;;;;;;10.57;51.05;101217.44;1726056;80;21015;-73
2022/10/15 06:31:05;;;;;;;5.63;3.53;;;;;;;10.48;51.57;101223.77;1720072;81;20999;-73
2022/10/15 06:33:34;;;;;;;7.53;3.40;;;;;;;10.43;51.85;101226.09;1731712;82;21630;-69
2022/10/15 06:36:04;;;;;;;4.10;3.40;;;;;;;10.40;52.20;101231.77;1736962;81;21506;-69
2022/10/15 06:38:33;;;;;;;5.87;3.90;;;;;;;10.41;52.05;101240.08;1733350;81;21068;-70
2022/10/15 06:41:06;;;;;;;3.67;2.53;;;;;;;10.38;52.15;101233.27;1725310;81;21050;-70
2022/10/15 06:43:32;;;;;;;4.57;2.77;;;;;;;10.32;52.00;101232.56;1734541;82;21125;-70
2022/10/15 06:46:02;;;;;;;3.73;2.37;;;;;;;10.32;52.61;101236.09;1694199;84;21011;-71
2022/10/15 06:48:29;;;;;;;4.10;3.70;;;;;;;10.30;52.01;101233.20;1727690;82;20995;-70
2022/10/15 06:50:58;;;;;;;;;;;;;;;10.29;52.39;101240.37;1721558;82;21062;-71
2022/10/15 06:53:24;;;;;;;3.27;2.80;;;;;;;10.30;52.49;101243.42;1726185;82;20449;-71
2022/10/15 06:55:50;;;;;;;4.40;2.10;;;;;;;10.30;51.89;101242.08;1730271;81;21606;-71
2022/10/15 06:58:17;;;;;;;3.08;2.42;;;;;;;10.30;51.83;101244.75;1742473;81;21037;-74
2022/10/15 07:00:43;;;;;;;2.55;2.35;;;;;;;10.29;51.37;101243.03;1739504;81;21368;-71
2022/10/15 07:03:10;;;;;;;2.77;1.70;;;;;;;10.22;51.41;101250.52;1730008;82;21002;-69
2022/10/15 07:05:37;;;;;;;;;;;;;;;10.18;50.83;101247.85;1739384;81;21610;-72
2022/10/15 07:08:04;;;;;;;4.03;2.27;;;;;;;10.17;51.37;101247.02;1734850;81;20131;-72
2022/10/15 07:10:31;;;;;;;2.03;1.67;;;;;;;10.11;50.92;101247.66;1703475;82;21026;-74
2022/10/15 07:13:00;;;;;;;3.87;2.60;;;;;;;10.13;51.52;101253.17;1733256;81;21132;-71
2022/10/15 07:15:28;;;;;;;5.27;2.93;;;;;;;10.18;51.23;101251.84;1711640;82;21555;-71
2022/10/15 07:18:00;;;;;;;4.90;1.80;;;;;;;10.24;51.93;101255.18;1723036;81;20994;-72
2022/10/15 07:20:29;;;;;;;2.77;2.20;;;;;;;10.33;51.50;101248.91;1732884;81;21035;-73
2022/10/15 07:22:59;;;;;;;3.70;2.23;;;;;;;10.40;51.75;101251.76;1725711;81;21022;-72
2022/10/15 07:25:28;;;;;;;4.00;1.93;;;;;;;10.45;51.48;101250.74;1736207;81;21067;-72
2022/10/15 07:27:56;;;;;;;6.23;3.23;;;;;;;10.45;51.49;101255.59;1745847;81;21011;-71
2022/10/15 07:30:27;;;;;;;6.93;2.60;;;;;;;10.48;52.02;101257.09;1732230;82;20947;-72
2022/10/15 07:32:57;;;;;;;3.40;2.40;;;;;;;10.48;52.08;101260.58;1729602;81;20982;-71
2022/10/15 07:35:27;;;;;;;2.17;1.97;;;;;;;10.47;52.35;101250.93;1684366;83;21087;-80
2022/10/15 07:37:54;;;;;;;2.83;2.13;;;;;;;10.59;52.35;101261.27;1720223;81;21018;-74
2022/10/15 07:40:20;;;;;;;2.90;2.00;;;;;;;10.71;52.11;101258.59;1736771;80;21065;-75
2022/10/15 07:42:53;;;;;;;1.93;1.73;;;;;;;10.41;51.84;101206.27;1734135;82;21436;-77
2022/10/15 07:45:24;;;;;;;2.30;2.13;;;;;;;10.81;51.70;101262.42;1737056;82;21550;-76
2022/10/15 07:47:51;;;;;;;4.27;2.30;;;;;;;10.84;51.68;101262.92;1730803;81;21079;-75
2022/10/15 07:50:20;;;;;;;5.57;3.30;;;;;;;10.50;51.67;101209.77;1727355;81;21487;-78
2022/10/15 07:52:47;;;;;;;3.53;2.13;;;;;;;10.91;52.12;101262.59;1731945;81;21030;-79
2022/10/15 07:55:13;;;;;;;3.77;1.42;;;;;;;10.97;52.00;101258.92;1733298;81;20983;-76
2022/10/15 07:57:40;;;;;;;4.70;2.05;;;;;;;11.07;51.71;101264.91;1738176;82;21681;-79
2022/10/15 08:00:08;;;;;;;2.55;2.35;;;;;;;11.20;51.35;101265.72;1738857;82;21046;-81
2022/10/15 08:02:42;;;;;;;2.80;2.23;;;;;;;11.36;50.61;101260.36;1695264;83;20995;-79
2022/10/15 08:05:10;;;;;;;5.30;2.17;;;;;;;11.52;50.23;101258.64;1728364;79;21591;-81
2022/10/15 08:07:36;;;;;;;3.83;1.72;;;;;;;11.60;50.28;101257.27;1716575;82;21007;-80
2022/10/15 08:10:06;;;;;;;2.30;1.90;;;;;;;11.68;50.00;101255.92;1733706;82;20955;-83
2022/10/15 08:12:34;;;;;;;1.77;1.67;;;;;;;11.76;50.45;101259.05;1728547;81;21043;-80
2022/10/15 08:15:00;;;;;;;2.85;1.42;;;;;;;11.85;49.71;101265.52;1721567;81;21516;-79
2022/10/15 08:17:27;;;;;;;1.82;1.42;;;;;;;11.92;49.32;101255.50;1724047;80;21060;-80
2022/10/15 08:19:54;;;;;;;1.98;1.85;;;;;;;11.99;48.61;101261.30;1725306;82;21492;-80
2022/10/15 08:22:21;;;;;;;2.95;1.75;;;;;;;12.05;48.56;101259.28;1740155;81;20990;-81
2022/10/15 08:24:47;;;;;;;3.12;1.77;;;;;;;12.03;48.93;101263.94;1734820;81;21097;-82
2022/10/15 08:27:13;;;;;;;1.75;1.60;;;;;;;12.00;49.29;101256.30;1737403;82;21182;-81
2022/10/15 08:29:41;;;;;;;5.00;2.47;;;;;;;11.97;49.17;101257.97;1736616;82;20983;-81
2022/10/15 08:32:08;;;;;;;4.08;1.95;;;;;;;11.90;49.01;101260.19;1738864;82;21212;-79
2022/10/15 08:34:35;;;;;;;2.60;1.45;;;;;;;11.91;49.38;101263.20;1737683;82;21037;-82
2022/10/15 08:37:02;;;;;;;2.25;2.05;;;;;;;11.94;48.97;101261.02;1736837;81;20966;-81
2022/10/15 08:39:28;;;;;;;;;;;;;;;11.94;48.59;101262.34;1741026;81;21029;-81
2022/10/15 08:42:02;;;;;;;1.95;1.35;;;;;;;11.96;48.97;101265.67;1734641;81;20233;-74
2022/10/15 08:44:55;;;;;;;2.10;1.87;;;;;;;11.94;47.79;101262.34;1738991;81;21543;-80
2022/10/15 08:47:33;;;;;;;2.42;1.92;;;;;;;11.99;48.26;101266.64;1723643;82;21493;-80
2022/10/15 08:50:04;;;;;;;1.95;1.32;;;;;;;12.05;47.94;101265.11;1679649;82;21150;-82
2022/10/15 08:52:45;;;;;;;3.27;1.32;;;;;;;12.10;47.45;101264.60;1736905;81;21010;-79
2022/10/15 08:55:15;;;;;;;3.00;2.15;;;;;;;12.13;48.02;101253.06;1732755;81;21024;-78
2022/10/15 08:58:18;;;;;;;8.03;2.20;;;;;;;12.19;48.27;101259.03;1727354;81;21038;-79
2022/10/15 09:01:08;;;;;;;2.72;2.35;;;;;;;12.26;48.35;101257.31;1732189;82;21074;-82
2022/10/15 09:03:57;;;;;;;4.08;2.95;;;;;;;12.29;47.21;101258.80;1732261;81;21472;-81
2022/10/15 09:06:34;;;;;;;5.50;3.27;;;;;;;12.29;46.93;101262.80;1739368;80;21543;-80
2022/10/15 09:09:24;;;;;;;11.18;6.08;;;;;;;12.34;47.14;101263.11;1732205;82;21428;-79
2022/10/15 09:12:22;;;;;;;8.25;5.50;;;;;;;12.35;44.85;101266.61;1738439;81;21580;-78
2022/10/15 09:14:49;;;;;;;14.60;6.55;;;;;;;12.26;45.18;101255.98;1727056;81;21117;-79
2022/10/15 09:17:25;;;;;;;11.45;7.30;;;;;;;12.20;45.59;101252.66;1730969;81;21017;-80
2022/10/15 09:19:56;;;;;;;20.97;6.85;;;;;;;12.26;44.96;101256.46;1737337;81;21042;-81
2022/10/15 09:22:30;;;;;;;7.28;3.75;;;;;;;12.22;43.90;101252.00;1739384;81;21085;-78
2022/10/15 09:24:56;;;;;;;10.05;4.55;;;;;;;12.16;43.55;101248.68;1735389;81;21121;-75
2022/10/15 09:27:35;;;;;;;7.75;4.42;;;;;;;12.17;43.85;101255.70;1729043;82;21019;-80
2022/10/15 09:30:13;;;;;;;7.17;3.87;;;;;;;12.18;44.56;101245.32;1732397;81;21001;-77
2022/10/15 09:33:17;;;;;;;6.28;3.92;;;;;;;12.30;44.67;101247.11;1734726;82;21007;-80
2022/10/15 09:36:05;;;;;;;3.80;3.40;;;;;;;12.44;45.07;101253.00;1718610;82;21019;-82
2022/10/15 09:38:58;;;;;;;5.40;4.65;;;;;;;12.55;44.72;101250.42;1738658;81;20950;-81
2022/10/15 09:41:42;;;;;;;5.87;3.08;;;;;;;12.60;44.47;101253.41;1731969;82;21050;-81
2022/10/15 09:44:13;;;;;;;9.18;3.55;;;;;;;12.60;44.57;101246.72;1729138;82;21019;-79
2022/10/15 09:46:46;;;;;;;9.90;3.05;;;;;;;12.68;44.78;101243.63;1727574;81;21015;-79
2022/10/15 09:49:23;;;;;;;4.25;2.15;;;;;;;12.73;44.58;101240.73;1724487;81;21046;-80
2022/10/15 09:52:10;;;;;;;7.72;2.40;;;;;;;12.80;44.64;101242.20;1732649;82;21142;-80
2022/10/15 09:55:03;;;;;;;2.50;1.30;;;;;;;12.86;44.27;101241.47;1735882;81;21177;-78
2022/10/15 09:57:34;;;;;;;2.52;1.30;;;;;;;12.89;43.29;101243.79;1706160;82;21030;-79
2022/10/15 10:00:05;;;;;;;5.12;1.20;;;;;;;12.85;43.50;101245.17;1690806;83;20999;-78
2022/10/15 10:02:35;;;;;;;2.22;0.70;;;;;;;12.81;43.39;101240.69;1700187;82;21023;-79
2022/10/15 10:05:31;;;;;;;2.58;0.62;;;;;;;12.83;43.36;101233.30;1740983;81;21492;-80
2022/10/15 10:08:22;;;;;;;3.00;1.20;;;;;;;12.84;43.18;101238.14;1734434;81;22474;-84
2022/10/15 10:11:06;;;;;;;4.95;0.75;;;;;;;12.88;43.92;101238.61;1732947;82;21539;-86
2022/10/15 10:13:45;;;;;;;1.35;0.70;;;;;;;12.98;44.27;101231.17;1723839;82;20986;-88
2022/10/15 10:16:16;;;;;;;3.08;0.68;;;;;;;13.11;43.81;101236.73;1729378;81;21038;-84
2022/10/15 10:19:13;;;;;;;0.93;0.37;;;;;;;13.17;42.93;101234.65;1732001;81;21059;-88
2022/10/15 10:21:41;;;;;;;1.52;0.33;;;;;;;13.17;43.33;101231.15;1726900;82;21018;-84
2022/10/15 10:24:33;;;;;;;1.42;0.30;;;;;;;13.24;43.01;101228.89;1732051;81;21125;-89
2022/10/15 10:28:55;;;;;;;1.85;0.40;;;;;;;13.39;42.38;101219.55;1789961;78;22233;-87
2022/10/15 10:31:31;;;;;;;5.50;0.60;;;;;;;13.37;42.46;101234.98;1724135;83;21558;-83
2022/10/15 10:34:00;;;;;;;0.45;0.30;;;;;;;13.42;42.82;101231.73;1725518;82;21052;-83
2022/10/15 10:36:35;;;;;;;1.98;0.35;;;;;;;13.47;42.54;101229.82;1726275;82;21049;-79
2022/10/15 10:39:16;;;;;;;1.02;0.40;;;;;;;13.46;42.62;101233.53;1748300;81;20939;-82
2022/10/15 10:42:06;;;;;;;4.62;0.65;;;;;;;13.44;42.67;101225.16;1752381;80;20978;-77
2022/10/15 10:44:37;;;;;;;1.85;0.47;;;;;;;13.44;42.82;101219.80;1716438;82;21467;-77
2022/10/15 10:47:17;;;;;;;4.05;0.45;;;;;;;13.45;42.06;101230.03;1702763;83;21530;-79
2022/10/15 10:49:56;;;;;;;4.10;0.20;;;;;;;13.39;42.49;101220.04;1725124;81;21672;-77
2022/10/15 10:52:33;;;;;;;1.75;0.47;;;;;;;13.33;42.18;101220.78;1733434;81;21365;-78
2022/10/15 10:55:19;;;;;;;1.55;0.37;;;;;;;13.28;42.06;101225.83;1736411;81;21009;-77
2022/10/15 10:57:55;;;;;;;2.33;0.60;;;;;;;13.22;42.35;101221.55;1712283;82;21124;-76
2022/10/15 11:00:42;;;;;;;1.65;0.40;;;;;;;13.22;43.01;101223.37;1690477;82;21029;-75
2022/10/15 11:03:34;;;;;;;1.22;0.23;;;;;;;13.20;42.51;101222.24;1721402;81;21168;-78
2022/10/15 11:06:36;;;;;;;1.12;0.30;;;;;;;13.19;42.72;101219.75;1725433;82;21024;-78
2022/10/15 11:09:27;;;;;;;0.60;0.40;;;;;;;13.17;42.42;101215.09;1722667;82;21025;-77
2022/10/15 11:12:25;;;;;;;2.25;1.07;;;;;;;13.14;42.53;101204.73;1715798;82;21131;-76
2022/10/15 11:15:02;;;;;;;1.67;0.95;;;;;;;13.08;42.12;101214.33;1730031;82;21018;-78
2022/10/15 11:18:11;;;;;;;4.90;0.65;;;;;;;13.06;42.40;101209.67;1720074;82;21541;-78
2022/10/15 11:21:10;;;;;;;1.30;0.78;;;;;;;13.10;42.72;101208.80;1725339;82;20978;-74
2022/10/15 11:24:00;;;;;;;1.60;0.75;;;;;;;13.12;42.94;101204.09;1693377;83;21138;-75
2022/10/15 11:27:03;;;;;;;2.55;0.30;;;;;;;13.11;42.58;101207.28;1703882;83;20989;-72
2022/10/15 11:29:53;;;;;;;2.20;0.90;;;;;;;13.11;42.45;101207.77;1710176;81;20965;-76
2022/10/15 11:32:52;;;;;;;3.97;0.60;;;;;;;13.08;42.29;101206.30;1659334;83;21071;-77
2022/10/15 11:35:39;;;;;;;3.50;0.30;;;;;;;13.07;42.72;101209.16;1692609;83;21022;-78
2022/10/15 11:38:17;;;;;;;0.62;0.40;;;;;;;13.13;42.64;101212.42;1631552;86;21017;-78
2022/10/15 11:41:17;;;;;;;2.67;0.45;;;;;;;13.16;42.40;101211.55;1620717;85;21025;-74
2022/10/15 11:44:04;;;;;;;1.40;0.37;;;;;;;13.18;41.96;101211.38;1677568;84;21057;-76
2022/10/15 11:46:53;;;;;;;1.05;0.50;;;;;;;13.14;41.82;101204.73;1647520;84;20974;-77
2022/10/15 11:49:53;;;;;;;0.50;0.20;;;;;;;13.12;41.83;101198.22;1685918;84;21109;-77
2022/10/15 11:52:45;;;;;;;0.57;0.30;;;;;;;13.03;41.15;101189.47;1687383;83;21117;-76
2022/10/15 11:55:18;;;;;;;1.35;0.30;;;;;;;13.10;41.35;101199.44;1657286;83;21112;-77
2022/10/15 11:57:47;;;;;;;1.00;0.20;;;;;;;13.03;41.11;101197.50;1697841;83;21606;-76